Time;durP1;ratioP1;P1;durP2;ratioP2;P2;SDS_P1;SDS_P2;PMS_P1;PMS_P2;Temp;Humidity;BMP_temperature;BMP_pressure;BME280_temperature;BME280_humidity;BME280_pressure;Samples;Min_cycle;Max_cycle;Signal;HPM_P1;HPM_P2
2022/11/07 00:01:15;;;;;;;3.13;1.10;;;10.50;99.90;;;;;;5016043;28;20401;-80
2022/11/07 00:03:42;;;;;;;2.70;1.20;;;10.60;99.90;;;;;;5020452;28;20516;-80
2022/11/07 00:06:09;;;;;;;3.28;1.17;;;10.60;99.90;;;;;;5041134;28;20048;-80
2022/11/07 00:08:36;;;;;;;2.65;1.20;;;10.60;99.90;;;;;;5043684;28;20152;-80
2022/11/07 00:11:03;;;;;;;1.00;0.73;;;10.60;99.90;;;;;;5006400;28;20061;-80
2022/11/07 00:13:30;;;;;;;2.42;0.90;;;10.70;99.90;;;;;;5021639;28;20459;-80
2022/11/07 00:15:58;;;;;;;1.48;1.13;;;10.70;99.90;;;;;;5022720;28;20103;-80
2022/11/07 00:18:25;;;;;;;2.65;1.08;;;10.60;99.90;;;;;;5002852;28;20056;-80
2022/11/07 00:20:52;;;;;;;2.90;0.90;;;10.70;99.90;;;;;;5032620;28;20052;-80
2022/11/07 00:23:19;;;;;;;2.10;0.80;;;10.70;99.90;;;;;;4995531;28;20064;-80
2022/11/07 00:25:46;;;;;;;3.08;1.38;;;10.70;99.90;;;;;;5019292;28;20131;-80
2022/11/07 00:28:13;;;;;;;1.52;0.80;;;10.70;99.90;;;;;;5006553;28;20488;-81
2022/11/07 00:30:40;;;;;;;3.53;1.38;;;10.70;99.90;;;;;;5028680;28;20048;-81
2022/11/07 00:33:07;;;;;;;1.55;0.90;;;10.70;99.90;;;;;;5043044;28;20553;-81
2022/11/07 00:35:34;;;;;;;1.88;0.73;;;10.70;99.90;;;;;;5041490;28;20450;-80
2022/11/07 00:38:02;;;;;;;4.80;1.15;;;10.80;99.90;;;;;;5036735;28;20056;-81
2022/11/07 00:40:29;;;;;;;1.80;0.93;;;10.80;99.90;;;;;;5041545;28;20044;-82
2022/11/07 00:42:55;;;;;;;2.42;1.17;;;10.80;99.90;;;;;;5008198;28;20636;-81
2022/11/07 00:45:23;;;;;;;7.38;1.85;;;10.80;99.90;;;;;;5036540;28;20041;-82
2022/11/07 00:47:50;;;;;;;4.25;2.03;;;10.90;99.90;;;;;;5035858;28;20053;-81
2022/11/07 00:50:18;;;;;;;7.63;2.05;;;11.00;99.90;;;;;;5020671;28;20053;-81
2022/11/07 00:52:48;;;;;;;3.72;1.33;;;11.10;99.90;;;;;;5024590;28;20135;-82
2022/11/07 00:55:15;;;;;;;3.60;1.60;;;11.20;99.90;;;;;;5040879;28;20068;-81
2022/11/07 00:57:41;;;;;;;7.43;1.80;;;11.20;99.90;;;;;;5037339;28;20044;-81
2022/11/07 01:00:09;;;;;;;5.20;1.55;;;11.30;99.90;;;;;;4991769;28;20547;-81
2022/11/07 01:02:36;;;;;;;2.75;1.50;;;11.30;99.90;;;;;;5008417;28;20132;-80
2022/11/07 01:05:09;;;;;;;4.10;1.65;;;11.30;99.90;;;;;;5012992;28;20069;-80
2022/11/07 01:07:37;;;;;;;2.33;1.08;;;11.40;99.90;;;;;;4995544;28;20048;-82
2022/11/07 01:10:04;;;;;;;1.75;1.10;;;11.30;99.90;;;;;;5007252;28;20538;-81
2022/11/07 01:12:34;;;;;;;3.38;1.25;;;11.30;99.90;;;;;;5024448;28;20492;-81
2022/11/07 01:15:02;;;;;;;2.40;1.08;;;11.30;99.90;;;;;;5019923;28;20041;-81
2022/11/07 01:17:29;;;;;;;2.33;0.90;;;11.30;99.90;;;;;;5018679;28;20404;-80
2022/11/07 01:19:56;;;;;;;3.78;1.40;;;11.40;99.90;;;;;;5033252;28;20063;-81
2022/11/07 01:22:25;;;;;;;3.17;1.30;;;11.40;99.90;;;;;;5008706;28;20045;-81
2022/11/07 01:24:53;;;;;;;2.88;1.15;;;11.40;99.90;;;;;;5023778;28;20428;-80
2022/11/07 01:27:19;;;;;;;2.08;1.10;;;11.50;99.90;;;;;;4991998;28;20195;-81
2022/11/07 01:29:46;;;;;;;2.97;1.13;;;11.50;99.90;;;;;;5016340;28;20041;-82
2022/11/07 01:32:13;;;;;;;2.42;0.93;;;11.50;99.90;;;;;;5040046;28;20191;-80
2022/11/07 01:34:40;;;;;;;1.48;0.80;;;11.50;99.90;;;;;;5023426;28;20056;-81
2022/11/07 01:37:06;;;;;;;2.22;1.00;;;11.50;99.90;;;;;;5013704;28;20053;-80
2022/11/07 01:39:33;;;;;;;1.88;0.60;;;11.50;99.90;;;;;;5021537;28;20044;-81
2022/11/07 01:42:00;;;;;;;0.90;0.73;;;11.50;99.90;;;;;;5020124;28;20057;-81
2022/11/07 01:44:27;;;;;;;2.80;1.15;;;11.40;99.90;;;;;;5037645;28;20484;-81
2022/11/07 01:46:55;;;;;;;2.55;1.40;;;11.40;99.90;;;;;;5039002;28;20515;-81
2022/11/07 01:49:30;;;;;;;2.53;1.23;;;11.40;99.90;;;;;;5020909;28;20109;-81
2022/11/07 01:52:15;;;;;;;2.55;1.20;;;11.40;99.90;;;;;;5021180;28;20046;-82
2022/11/07 01:54:54;;;;;;;2.58;0.80;;;11.40;99.90;;;;;;5038766;28;20052;-81
2022/11/07 01:57:44;;;;;;;2.92;1.38;;;11.40;99.90;;;;;;5041783;28;20511;-81
2022/11/07 02:00:14;;;;;;;1.63;0.77;;;11.40;99.90;;;;;;5039372;28;20422;-81
2022/11/07 02:02:40;;;;;;;3.05;1.25;;;11.40;99.90;;;;;;4990479;28;20066;-81
2022/11/07 02:05:08;;;;;;;3.30;1.52;;;11.50;99.90;;;;;;4996259;28;20049;-81
2022/11/07 02:07:34;;;;;;;3.55;1.45;;;11.50;99.90;;;;;;5021768;28;20041;-82
2022/11/07 02:10:02;;;;;;;4.10;1.13;;;11.60;99.90;;;;;;4989508;28;20549;-81
2022/11/07 02:12:29;;;;;;;3.55;1.02;;;11.60;99.90;;;;;;5018138;28;20128;-81
2022/11/07 02:14:55;;;;;;;5.85;1.17;;;11.60;99.90;;;;;;5037910;28;20440;-81
2022/11/07 02:17:22;;;;;;;4.88;1.00;;;11.60;99.90;;;;;;4991601;28;20049;-81
2022/11/07 02:19:51;;;;;;;2.08;1.17;;;11.60;99.90;;;;;;5020446;28;20453;-82
2022/11/07 02:22:24;;;;;;;3.67;1.00;;;11.60;99.90;;;;;;5021585;28;20065;-81
2022/11/07 02:24:52;;;;;;;3.88;1.13;;;11.70;99.90;;;;;;5033776;28;20053;-81
2022/11/07 02:27:20;;;;;;;2.90;1.25;;;11.70;99.90;;;;;;5019602;28;20438;-81
2022/11/07 02:29:48;;;;;;;2.35;1.10;;;11.80;99.90;;;;;;5020155;28;20068;-81
2022/11/07 02:32:16;;;;;;;5.00;2.30;;;11.80;99.90;;;;;;5011487;28;20050;-81
2022/11/07 02:34:42;;;;;;;3.88;1.25;;;11.80;99.90;;;;;;5040860;28;20511;-81
2022/11/07 02:37:22;;;;;;;4.35;1.30;;;11.80;99.90;;;;;;5032554;28;20041;-81
2022/11/07 02:39:49;;;;;;;4.85;1.48;;;11.80;99.90;;;;;;5025447;28;20224;-81
2022/11/07 02:42:16;;;;;;;3.13;1.10;;;11.80;99.90;;;;;;5023984;28;20054;-81
2022/11/07 02:44:43;;;;;;;5.00;1.35;;;11.80;99.90;;;;;;5023488;28;20141;-81
2022/11/07 02:47:10;;;;;;;1.83;1.00;;;11.80;99.90;;;;;;5026122;28;20053;-81
2022/11/07 02:49:37;;;;;;;2.72;1.00;;;11.70;99.90;;;;;;5025206;28;20551;-81
2022/11/07 02:52:04;;;;;;;2.08;1.05;;;11.70;99.90;;;;;;5029578;28;20041;-81
2022/11/07 02:54:31;;;;;;;2.35;1.10;;;11.70;99.90;;;;;;5019143;28;20056;-82
2022/11/07 02:56:58;;;;;;;2.25;0.80;;;11.70;99.90;;;;;;5006961;28;20441;-82
2022/11/07 02:59:25;;;;;;;2.15;0.90;;;11.70;99.90;;;;;;5023081;28;20140;-81
2022/11/07 03:01:53;;;;;;;2.05;0.75;;;11.80;99.90;;;;;;5022503;28;20110;-81
2022/11/07 03:04:20;;;;;;;2.17;1.17;;;11.80;99.90;;;;;;5039049;28;20045;-82
2022/11/07 03:06:47;;;;;;;3.58;1.30;;;11.80;99.90;;;;;;4994113;28;20045;-82
2022/11/07 03:09:13;;;;;;;2.90;1.25;;;11.80;99.90;;;;;;5026953;28;20081;-81
2022/11/07 03:11:40;;;;;;;1.60;1.05;;;11.80;99.90;;;;;;5038439;28;20396;-80
2022/11/07 03:14:08;;;;;;;1.20;0.98;;;11.80;99.90;;;;;;5028906;28;20041;-81
2022/11/07 03:16:34;;;;;;;2.95;0.77;;;11.80;99.90;;;;;;5043722;28;20049;-81
2022/11/07 03:19:01;;;;;;;2.70;1.00;;;11.80;99.90;;;;;;5011172;28;20049;-81
2022/11/07 03:21:28;;;;;;;2.28;0.95;;;11.70;99.90;;;;;;5022099;28;20418;-81
2022/11/07 03:23:55;;;;;;;2.63;1.10;;;11.80;99.90;;;;;;5020397;28;20060;-81
2022/11/07 03:26:22;;;;;;;3.30;1.05;;;11.80;99.90;;;;;;5045844;28;20052;-80
2022/11/07 03:28:49;;;;;;;3.20;1.10;;;11.80;99.90;;;;;;5044586;28;20053;-81
2022/11/07 03:31:16;;;;;;;3.60;1.30;;;11.80;99.90;;;;;;5000465;28;20048;-81
2022/11/07 03:33:43;;;;;;;3.50;1.35;;;11.80;99.90;;;;;;5043955;28;20433;-81
2022/11/07 03:36:10;;;;;;;3.90;0.80;;;11.70;99.90;;;;;;5024675;28;20413;-81
2022/11/07 03:38:37;;;;;;;2.67;0.90;;;11.70;99.90;;;;;;5009799;28;20053;-81
2022/11/07 03:41:04;;;;;;;2.97;1.20;;;11.70;99.90;;;;;;5021323;28;20053;-81
2022/11/07 03:43:31;;;;;;;3.05;1.05;;;11.70;99.90;;;;;;5044925;28;20144;-81
2022/11/07 03:45:58;;;;;;;3.55;1.17;;;11.80;99.90;;;;;;5026262;28;20087;-82
2022/11/07 03:48:25;;;;;;;2.20;0.98;;;11.80;99.90;;;;;;4995467;28;20056;-81
2022/11/07 03:50:51;;;;;;;2.65;1.20;;;11.80;99.90;;;;;;5021482;28;20053;-82
2022/11/07 03:53:19;;;;;;;1.65;1.00;;;11.80;99.90;;;;;;5012402;28;20057;-81
2022/11/07 03:55:53;;;;;;;2.33;1.00;;;11.80;99.90;;;;;;5025549;28;20049;-81
2022/11/07 03:58:20;;;;;;;1.80;0.82;;;11.80;99.90;;;;;;5023115;28;20044;-81
2022/11/07 04:00:47;;;;;;;4.32;1.33;;;11.80;99.90;;;;;;5024170;28;20049;-81
2022/11/07 04:03:13;;;;;;;3.50;1.15;;;11.80;99.90;;;;;;5027555;28;20056;-82
2022/11/07 04:05:40;;;;;;;2.55;1.02;;;11.80;99.90;;;;;;4993301;28;20531;-82
2022/11/07 04:08:07;;;;;;;3.50;1.30;;;11.80;99.90;;;;;;5025395;28;20049;-81
2022/11/07 04:10:34;;;;;;;2.63;1.05;;;11.80;99.90;;;;;;5024254;28;20053;-81
2022/11/07 04:18:31;;;;;;;1.77;0.82;;;11.90;99.90;;;;;;5026066;28;20045;-81
2022/11/07 04:20:58;;;;;;;1.75;1.05;;;11.90;99.90;;;;;;5030749;28;20056;-81
2022/11/07 04:23:25;;;;;;;2.13;1.27;;;11.90;99.90;;;;;;5045045;28;20056;-81
2022/11/07 04:28:38;;;;;;;3.65;1.25;;;12.00;99.90;;;;;;5037621;28;20630;-81
2022/11/07 04:31:05;;;;;;;1.10;0.77;;;12.00;99.90;;;;;;5007147;28;20072;-82
2022/11/07 04:33:32;;;;;;;2.58;1.10;;;12.00;99.90;;;;;;5022091;28;20049;-81
2022/11/07 04:35:58;;;;;;;2.40;1.00;;;12.00;99.90;;;;;;5021667;28;20049;-81
2022/11/07 04:38:25;;;;;;;1.77;0.70;;;12.00;99.90;;;;;;5043716;28;20045;-82
2022/11/07 04:40:55;;;;;;;1.67;0.80;;;12.10;99.90;;;;;;5033369;28;20055;-81
2022/11/07 04:43:23;;;;;;;2.33;1.05;;;12.10;99.90;;;;;;5027149;28;20103;-81
2022/11/07 04:45:50;;;;;;;2.25;0.98;;;12.00;99.90;;;;;;4992550;28;20080;-81
2022/11/07 04:48:17;;;;;;;3.60;0.98;;;12.00;99.90;;;;;;5020335;28;20060;-81
2022/11/07 04:50:44;;;;;;;4.28;1.40;;;12.00;99.90;;;;;;5034764;28;20133;-81
2022/11/07 04:53:15;;;;;;;3.17;1.63;;;12.10;99.90;;;;;;4996168;28;20138;-81
2022/11/07 04:55:42;;;;;;;4.15;1.13;;;12.10;99.90;;;;;;5026331;28;20136;-81
2022/11/07 04:58:09;;;;;;;3.40;1.50;;;12.10;99.90;;;;;;5026851;28;20578;-81
2022/11/07 05:00:36;;;;;;;2.35;1.13;;;12.20;99.90;;;;;;4995832;28;20049;-80
2022/11/07 05:03:03;;;;;;;3.60;1.00;;;12.20;99.90;;;;;;5026113;28;20068;-81
2022/11/07 05:05:30;;;;;;;2.35;1.45;;;12.20;99.90;;;;;;5026102;28;20052;-80
2022/11/07 05:07:56;;;;;;;3.17;1.52;;;12.30;99.90;;;;;;5014070;28;20045;-81
2022/11/07 05:10:26;;;;;;;2.67;1.13;;;12.30;99.90;;;;;;5021452;28;20125;-80
2022/11/07 05:12:53;;;;;;;3.70;1.45;;;12.30;99.90;;;;;;5027902;28;20077;-81
2022/11/07 05:15:20;;;;;;;2.97;1.08;;;12.30;99.90;;;;;;5025599;28;20499;-81
2022/11/07 05:17:47;;;;;;;3.67;1.48;;;12.30;99.90;;;;;;5022866;28;20049;-81
2022/11/07 05:20:33;;;;;;;4.30;1.50;;;12.30;99.90;;;;;;5025695;28;20042;-81
2022/11/07 05:23:13;;;;;;;2.08;1.00;;;12.40;99.90;;;;;;5010135;28;20699;-80
2022/11/07 05:25:46;;;;;;;2.22;0.90;;;12.40;99.90;;;;;;4998015;28;20045;-81
2022/11/07 05:28:15;;;;;;;3.58;1.55;;;12.40;99.90;;;;;;5026052;28;20042;-80
2022/11/07 05:30:42;;;;;;;3.40;1.40;;;12.40;99.90;;;;;;5023883;28;20053;-81
2022/11/07 05:33:10;;;;;;;3.28;1.13;;;12.40;99.90;;;;;;5029631;28;20048;-81
2022/11/07 05:35:37;;;;;;;4.47;1.70;;;12.40;99.90;;;;;;5027434;28;20557;-81
2022/11/07 05:38:04;;;;;;;4.28;1.50;;;12.40;99.90;;;;;;5009611;28;20679;-81
2022/11/07 05:40:33;;;;;;;5.65;2.05;;;12.40;99.90;;;;;;5020457;28;20400;-81
2022/11/07 05:43:04;;;;;;;4.05;1.95;;;12.50;99.90;;;;;;5031396;28;20056;-81
2022/11/07 05:45:32;;;;;;;4.05;1.33;;;12.50;99.90;;;;;;5011500;28;20064;-81
2022/11/07 05:48:00;;;;;;;4.13;1.50;;;12.50;99.90;;;;;;5024907;28;20136;-81
2022/11/07 05:50:27;;;;;;;2.38;1.23;;;12.40;99.90;;;;;;5022669;28;20053;-80
2022/11/07 05:52:54;;;;;;;2.55;1.20;;;12.40;99.90;;;;;;5022890;28;20052;-80
2022/11/07 05:55:21;;;;;;;3.53;1.10;;;12.40;99.90;;;;;;5005802;28;20429;-81
2022/11/07 05:57:48;;;;;;;1.75;1.02;;;12.40;99.90;;;;;;5022505;28;20432;-80
2022/11/07 06:00:15;;;;;;;5.70;1.42;;;12.30;99.90;;;;;;5008219;28;20497;-80
2022/11/07 06:02:42;;;;;;;3.45;1.25;;;12.40;99.90;;;;;;5009475;28;20056;-80
2022/11/07 06:05:09;;;;;;;3.67;1.30;;;12.30;99.90;;;;;;5030747;28;20057;-80
2022/11/07 06:07:37;;;;;;;4.05;1.40;;;12.40;99.90;;;;;;5012789;28;20303;-80
2022/11/07 06:10:05;;;;;;;3.28;1.35;;;12.30;99.90;;;;;;5029929;28;20054;-80
2022/11/07 06:12:32;;;;;;;3.03;1.45;;;12.40;99.90;;;;;;5017813;28;20168;-80
2022/11/07 06:14:58;;;;;;;2.38;1.17;;;12.40;99.90;;;;;;5014396;28;20052;-80
2022/11/07 06:17:25;;;;;;;2.75;1.25;;;12.30;99.90;;;;;;5016908;28;20064;-79
2022/11/07 06:19:52;;;;;;;2.60;1.02;;;12.30;99.90;;;;;;5028755;28;20136;-79
2022/11/07 06:22:18;;;;;;;3.53;1.10;;;12.30;99.90;;;;;;4998942;28;20409;-79
2022/11/07 06:24:45;;;;;;;3.83;1.15;;;12.30;99.90;;;;;;5014166;28;20492;-79
2022/11/07 06:27:13;;;;;;;3.47;1.10;;;12.20;99.90;;;;;;5012154;28;20060;-80
2022/11/07 06:29:40;;;;;;;2.95;1.25;;;12.20;99.90;;;;;;4999840;28;20057;-80
2022/11/07 06:32:06;;;;;;;3.47;1.13;;;12.20;99.90;;;;;;5018935;28;20056;-80
2022/11/07 06:34:33;;;;;;;4.97;1.20;;;12.10;99.90;;;;;;5036814;28;20091;-84
2022/11/07 06:37:00;;;;;;;1.63;1.10;;;12.20;99.90;;;;;;5012261;28;20412;-82
2022/11/07 06:39:29;;;;;;;1.88;0.93;;;12.20;99.90;;;;;;5026233;28;20140;-84
2022/11/07 06:41:56;;;;;;;1.75;0.80;;;12.10;99.90;;;;;;5038544;28;20067;-84
2022/11/07 06:44:22;;;;;;;1.75;0.82;;;12.10;99.90;;;;;;5041858;28;20280;-84
2022/11/07 06:46:49;;;;;;;1.52;0.73;;;12.10;99.90;;;;;;5029222;28;20056;-83
2022/11/07 06:49:16;;;;;;;1.88;0.80;;;12.10;99.90;;;;;;5024345;28;20073;-82
2022/11/07 06:51:43;;;;;;;4.20;1.20;;;12.00;99.90;;;;;;5013241;28;20073;-84
2022/11/07 06:54:14;;;;;;;2.97;0.98;;;12.10;99.90;;;;;;5023111;28;20107;-82
2022/11/07 06:56:40;;;;;;;3.45;1.50;;;12.10;99.90;;;;;;5028965;28;20068;-84
2022/11/07 06:59:07;;;;;;;2.22;0.75;;;12.10;99.90;;;;;;5027472;28;20141;-82
2022/11/07 07:01:34;;;;;;;3.95;1.30;;;12.10;99.90;;;;;;5016392;28;20053;-83
2022/11/07 07:04:01;;;;;;;3.95;1.52;;;12.10;99.90;;;;;;5025815;28;20136;-84
2022/11/07 07:06:28;;;;;;;2.97;1.15;;;12.20;99.90;;;;;;5008450;28;20436;-84
2022/11/07 07:08:56;;;;;;;3.63;1.33;;;12.20;99.90;;;;;;5020961;28;20052;-84
2022/11/07 07:11:23;;;;;;;2.97;1.40;;;12.30;99.90;;;;;;5028020;28;20059;-84
2022/11/07 07:13:49;;;;;;;3.15;1.00;;;12.30;99.90;;;;;;5014259;28;20049;-84
2022/11/07 07:16:17;;;;;;;6.95;1.35;;;12.30;99.90;;;;;;5047405;28;20612;-82
2022/11/07 07:18:44;;;;;;;2.80;1.13;;;12.30;99.90;;;;;;5033294;28;20476;-85
2022/11/07 07:21:12;;;;;;;2.88;1.50;;;12.40;99.90;;;;;;5033986;28;20053;-84
2022/11/07 07:23:39;;;;;;;1.98;0.98;;;12.40;99.90;;;;;;5004702;28;20137;-84
2022/11/07 07:26:08;;;;;;;3.40;1.33;;;12.50;99.90;;;;;;5030724;28;20046;-84
2022/11/07 07:28:36;;;;;;;2.78;1.02;;;12.60;99.90;;;;;;5035165;28;20048;-84
2022/11/07 07:31:12;;;;;;;2.17;1.00;;;12.70;99.90;;;;;;5011296;28;20058;-85
2022/11/07 07:33:39;;;;;;;3.08;1.05;;;12.70;99.90;;;;;;5038321;28;20556;-82
2022/11/07 07:36:07;;;;;;;4.28;1.45;;;12.80;99.90;;;;;;5012380;28;20057;-84
2022/11/07 07:38:33;;;;;;;3.70;1.20;;;12.90;99.90;;;;;;5024777;28;20046;-83
2022/11/07 07:41:00;;;;;;;3.63;1.48;;;13.00;99.90;;;;;;5009808;28;20602;-84
2022/11/07 07:43:27;;;;;;;2.92;1.27;;;13.00;99.90;;;;;;5002483;28;20069;-84
2022/11/07 07:46:00;;;;;;;3.92;1.50;;;13.10;99.90;;;;;;5007345;28;20477;-82
2022/11/07 07:48:27;;;;;;;2.60;1.25;;;13.20;99.90;;;;;;5030709;28;20131;-84
2022/11/07 07:50:54;;;;;;;4.70;1.63;;;13.20;99.90;;;;;;5014830;28;20520;-83
2022/11/07 07:53:21;;;;;;;3.58;1.40;;;13.20;99.90;;;;;;5016663;28;20078;-83
2022/11/07 07:55:48;;;;;;;4.30;1.77;;;13.30;99.90;;;;;;5031386;28;20485;-83
2022/11/07 07:58:14;;;;;;;3.88;1.50;;;13.30;99.90;;;;;;5022041;28;20053;-82
2022/11/07 08:00:41;;;;;;;2.97;1.52;;;13.40;99.90;;;;;;5011006;28;20067;-83
2022/11/07 08:03:09;;;;;;;2.80;1.42;;;13.40;99.90;;;;;;5018808;28;20140;-84
2022/11/07 08:05:37;;;;;;;3.38;1.50;;;13.40;99.90;;;;;;5024229;28;20053;-85
2022/11/07 08:08:05;;;;;;;5.15;1.80;;;13.50;99.90;;;;;;5030353;28;20053;-84
2022/11/07 08:10:32;;;;;;;5.63;1.55;;;13.50;99.90;;;;;;5016635;28;20055;-85
2022/11/07 08:13:09;;;;;;;1.40;0.75;;;13.50;99.90;;;;;;5015218;28;20057;-85
2022/11/07 08:15:36;;;;;;;1.58;1.00;;;13.50;99.90;;;;;;5031618;28;20486;-83
2022/11/07 08:18:03;;;;;;;1.85;1.08;;;13.50;99.90;;;;;;5045672;28;20105;-84
2022/11/07 08:20:30;;;;;;;3.60;1.20;;;13.60;99.90;;;;;;5012329;28;20132;-83
2022/11/07 08:23:01;;;;;;;3.05;1.30;;;13.60;99.90;;;;;;5031682;28;20052;-83
2022/11/07 08:25:28;;;;;;;4.00;1.30;;;13.60;99.90;;;;;;5011988;28;20509;-84
2022/11/07 08:27:55;;;;;;;4.00;1.13;;;13.70;99.90;;;;;;5028976;28;20136;-83
2022/11/07 08:30:22;;;;;;;3.15;1.33;;;13.70;99.90;;;;;;5013808;28;20065;-84
2022/11/07 08:32:49;;;;;;;5.50;1.63;;;13.70;99.90;;;;;;5047415;28;20516;-85
2022/11/07 08:35:15;;;;;;;3.70;1.25;;;13.70;99.90;;;;;;5031690;28;20187;-84
2022/11/07 08:37:42;;;;;;;2.78;1.30;;;13.80;99.90;;;;;;5015340;28;20049;-85
2022/11/07 08:40:10;;;;;;;2.47;1.10;;;13.80;99.90;;;;;;5047775;28;20057;-85
2022/11/07 08:42:36;;;;;;;2.33;1.20;;;13.80;99.90;;;;;;5011976;28;20153;-84
2022/11/07 08:45:04;;;;;;;3.58;1.02;;;13.80;99.90;;;;;;5044192;28;20049;-84
2022/11/07 08:47:30;;;;;;;1.63;0.98;;;13.90;99.90;;;;;;5047993;28;20064;-84
2022/11/07 08:49:57;;;;;;;3.10;1.33;;;13.90;99.90;;;;;;5048483;28;20060;-84
2022/11/07 08:52:24;;;;;;;2.15;1.13;;;13.90;99.90;;;;;;5048614;28;20056;-85
2022/11/07 08:54:51;;;;;;;3.88;1.40;;;13.90;99.90;;;;;;5014987;28;20085;-84
2022/11/07 08:57:18;;;;;;;4.20;1.50;;;14.00;99.90;;;;;;5048471;28;20076;-84
2022/11/07 08:59:45;;;;;;;3.92;1.80;;;14.00;99.90;;;;;;5029979;28;20544;-85
2022/11/07 09:02:12;;;;;;;3.97;1.50;;;14.00;99.90;;;;;;5031362;28;20084;-85
2022/11/07 09:04:58;;;;;;;2.95;1.98;;;14.10;99.90;;;;;;5015117;28;20041;-84
2022/11/07 09:07:25;;;;;;;2.17;1.00;;;14.20;99.90;;;;;;5003666;28;20358;-84
2022/11/07 09:09:52;;;;;;;1.77;0.90;;;14.30;99.90;;;;;;5030603;28;20131;-84
2022/11/07 09:12:19;;;;;;;1.63;1.02;;;14.30;99.90;;;;;;5011371;28;20247;-84
2022/11/07 09:14:46;;;;;;;1.98;0.93;;;14.40;99.90;;;;;;5015484;28;20069;-84
2022/11/07 09:17:13;;;;;;;1.95;0.80;;;14.50;99.90;;;;;;5014439;28;20051;-84
2022/11/07 09:19:39;;;;;;;1.23;0.80;;;14.60;99.90;;;;;;4999211;28;20761;-85
2022/11/07 09:22:06;;;;;;;2.83;1.00;;;14.60;99.90;;;;;;5019329;28;20057;-85
2022/11/07 09:24:33;;;;;;;3.35;1.08;;;14.60;99.90;;;;;;5013737;28;20053;-83
2022/11/07 09:27:00;;;;;;;1.30;0.80;;;14.70;99.90;;;;;;5020557;28;20420;-84
2022/11/07 09:29:27;;;;;;;1.17;0.73;;;14.70;99.90;;;;;;5026625;28;20759;-83
2022/11/07 09:31:54;;;;;;;3.33;1.00;;;14.70;99.90;;;;;;5006108;28;20113;-85
2022/11/07 09:34:20;;;;;;;2.63;1.40;;;14.90;99.90;;;;;;5027936;28;20056;-85
2022/11/07 09:36:47;;;;;;;2.38;1.20;;;14.90;99.90;;;;;;5036141;28;20485;-85
2022/11/07 09:39:14;;;;;;;3.17;1.08;;;14.80;99.90;;;;;;5010237;28;20043;-76
2022/11/07 09:42:12;;;;;;;2.22;1.00;;;14.80;99.90;;;;;;5032897;28;20049;-76
2022/11/07 09:44:41;;;;;;;2.40;0.95;;;14.90;99.90;;;;;;5042653;28;20137;-76
2022/11/07 09:47:15;;;;;;;3.08;1.08;;;15.00;99.90;;;;;;5044213;28;20674;-76
2022/11/07 09:49:44;;;;;;;2.22;0.90;;;15.10;99.90;;;;;;5043937;28;20071;-76
2022/11/07 09:52:15;;;;;;;2.08;1.05;;;15.10;99.90;;;;;;5026667;28;20469;-76
2022/11/07 09:55:00;;;;;;;4.38;1.58;;;15.10;99.90;;;;;;5042355;28;20055;-77
2022/11/07 09:57:27;;;;;;;2.47;1.08;;;15.10;99.90;;;;;;5027045;28;20055;-77
2022/11/07 09:59:58;;;;;;;1.90;1.10;;;15.10;99.90;;;;;;5026190;28;20048;-76
2022/11/07 10:02:29;;;;;;;3.25;0.75;;;15.10;99.90;;;;;;5011988;28;20548;-76
2022/11/07 10:04:57;;;;;;;1.92;0.60;;;15.00;99.90;;;;;;5028387;28;20049;-76
2022/11/07 10:07:39;;;;;;;3.42;1.10;;;15.00;99.90;;;;;;5028492;28;20041;-76
2022/11/07 10:10:12;;;;;;;2.17;0.98;;;14.90;99.90;;;;;;5047379;28;20067;-77
2022/11/07 10:12:51;;;;;;;2.55;1.00;;;14.80;99.90;;;;;;5048911;28;20052;-76
2022/11/07 10:15:26;;;;;;;3.08;1.55;;;14.80;99.90;;;;;;5029019;28;20046;-75
2022/11/07 10:18:08;;;;;;;1.60;1.00;;;14.70;99.90;;;;;;4996558;28;20053;-75
2022/11/07 10:21:16;;;;;;;3.00;1.25;;;14.70;99.90;;;;;;5029965;28;20054;-76
2022/11/07 10:24:25;;;;;;;2.90;1.10;;;14.60;99.90;;;;;;5021138;28;20099;-76
2022/11/07 10:26:52;;;;;;;5.25;1.35;;;14.70;99.90;;;;;;5007707;28;20054;-76
2022/11/07 10:29:20;;;;;;;3.90;1.58;;;14.70;99.90;;;;;;5017700;28;20067;-76
2022/11/07 10:31:53;;;;;;;5.20;1.55;;;14.70;99.90;;;;;;5030678;28;20440;-76
2022/11/07 10:34:32;;;;;;;3.47;1.77;;;14.70;99.90;;;;;;5047813;28;20053;-76
2022/11/07 10:36:59;;;;;;;3.70;1.58;;;14.70;99.90;;;;;;5045522;28;20049;-76
2022/11/07 10:39:27;;;;;;;4.30;1.98;;;14.80;99.90;;;;;;5046458;28;20056;-75
2022/11/07 10:42:06;;;;;;;3.03;1.50;;;14.80;99.90;;;;;;5031805;28;20052;-76
2022/11/07 10:44:33;;;;;;;4.35;1.65;;;14.80;99.90;;;;;;5031245;28;20072;-75
2022/11/07 10:47:02;;;;;;;4.80;1.77;;;14.80;99.90;;;;;;5030692;28;20045;-75
2022/11/07 10:49:30;;;;;;;3.88;1.67;;;14.80;99.90;;;;;;5046083;28;20056;-75
2022/11/07 10:52:07;;;;;;;3.25;1.40;;;14.70;99.90;;;;;;5028534;28;20056;-74
2022/11/07 10:54:34;;;;;;;5.85;1.83;;;14.80;99.90;;;;;;5040941;28;20053;-75
2022/11/07 10:57:07;;;;;;;3.80;1.52;;;14.80;99.90;;;;;;5031847;28;20136;-76
2022/11/07 10:59:35;;;;;;;5.60;1.70;;;14.80;99.90;;;;;;5046805;28;20063;-74
2022/11/07 11:02:08;;;;;;;4.43;2.03;;;14.90;99.90;;;;;;5014523;28;20053;-75
2022/11/07 11:04:35;;;;;;;5.40;2.20;;;14.90;99.90;;;;;;5047573;28;20055;-75
2022/11/07 11:07:04;;;;;;;5.53;1.65;;;15.00;99.90;;;;;;5015180;28;20496;-75
2022/11/07 11:09:32;;;;;;;5.15;2.28;;;15.00;99.90;;;;;;5047949;28;20401;-76
2022/11/07 11:12:26;;;;;;;3.75;1.75;;;15.00;99.90;;;;;;5031696;28;20501;-76
2022/11/07 11:15:10;;;;;;;4.13;1.45;;;15.00;99.90;;;;;;5046077;28;20053;-76
2022/11/07 11:17:37;;;;;;;3.85;1.63;;;14.90;99.90;;;;;;5032070;28;20053;-76
2022/11/07 11:20:04;;;;;;;3.05;1.27;;;14.90;99.90;;;;;;5046651;28;20068;-75
2022/11/07 11:22:31;;;;;;;3.50;1.58;;;14.90;99.90;;;;;;5043969;28;20060;-75
2022/11/07 11:25:25;;;;;;;4.30;2.00;;;14.90;99.90;;;;;;5026943;28;20053;-76
2022/11/07 11:28:05;;;;;;;3.55;1.50;;;15.00;99.90;;;;;;5044460;28;20512;-76
2022/11/07 11:30:32;;;;;;;5.25;1.85;;;15.10;99.90;;;;;;5046363;28;20057;-76
2022/11/07 11:33:16;;;;;;;3.33;1.60;;;15.20;99.90;;;;;;5030144;28;20513;-76
2022/11/07 11:35:46;;;;;;;3.63;1.60;;;15.30;99.90;;;;;;5015584;28;20060;-76
2022/11/07 11:38:36;;;;;;;5.60;1.95;;;15.30;99.90;;;;;;5030300;28;20060;-76
2022/11/07 11:41:23;;;;;;;4.95;1.60;;;15.30;99.90;;;;;;5032903;28;20053;-75
2022/11/07 11:43:54;;;;;;;5.07;2.00;;;15.30;99.90;;;;;;5032680;28;20056;-76
2022/11/07 11:46:29;;;;;;;7.43;2.17;;;15.30;99.90;;;;;;5013360;28;20163;-76
2022/11/07 11:49:05;;;;;;;3.03;1.73;;;15.40;99.90;;;;;;5029612;28;20057;-76
2022/11/07 11:51:32;;;;;;;3.45;1.35;;;15.50;99.90;;;;;;5031722;28;20485;-76
2022/11/07 11:53:59;;;;;;;3.28;1.33;;;15.50;99.90;;;;;;5046798;28;20067;-76
2022/11/07 11:56:33;;;;;;;3.47;1.38;;;15.50;99.90;;;;;;5030083;28;20052;-75
2022/11/07 11:59:12;;;;;;;5.00;2.40;;;15.40;99.90;;;;;;5046629;28;20537;-75
2022/11/07 12:01:43;;;;;;;4.03;1.60;;;15.30;99.90;;;;;;5029475;28;20049;-76
2022/11/07 12:04:34;;;;;;;5.53;1.80;;;15.30;99.90;;;;;;5046376;28;20049;-76
2022/11/07 12:07:28;;;;;;;3.60;1.38;;;15.40;99.90;;;;;;5046707;28;20049;-76
2022/11/07 12:10:21;;;;;;;3.05;1.40;;;15.40;99.90;;;;;;5047678;28;20143;-76
2022/11/07 12:13:09;;;;;;;2.33;1.10;;;15.50;99.90;;;;;;5040802;28;20052;-76
2022/11/07 12:15:48;;;;;;;4.45;1.80;;;15.60;99.90;;;;;;5046432;28;20045;-76
2022/11/07 12:18:32;;;;;;;5.10;1.80;;;15.50;99.90;;;;;;5046171;28;20053;-76
2022/11/07 12:21:14;;;;;;;2.88;1.00;;;15.50;99.90;;;;;;5031592;28;20135;-76
2022/11/07 12:24:10;;;;;;;4.38;1.95;;;15.50;99.90;;;;;;5023124;28;20087;-77
2022/11/07 12:26:56;;;;;;;4.22;1.50;;;15.50;99.90;;;;;;5000814;28;20488;-77
2022/11/07 12:29:44;;;;;;;4.82;2.03;;;15.30;99.90;;;;;;5013125;28;20055;-76
2022/11/07 12:32:40;;;;;;;6.28;2.10;;;15.20;99.90;;;;;;5021529;28;20049;-76
2022/11/07 12:35:12;;;;;;;3.33;1.52;;;15.10;99.90;;;;;;5011862;28;20774;-77
2022/11/07 12:37:56;;;;;;;3.13;1.38;;;15.00;99.90;;;;;;5029870;28;20059;-75
2022/11/07 12:40:29;;;;;;;3.97;1.20;;;15.00;99.90;;;;;;5008323;28;20081;-75
2022/11/07 12:43:21;;;;;;;5.63;2.05;;;15.00;99.90;;;;;;5026277;28;20052;-76
2022/11/07 12:46:10;;;;;;;3.35;1.73;;;14.90;99.90;;;;;;5023321;28;20049;-77
2022/11/07 12:48:46;;;;;;;7.22;1.90;;;15.00;99.90;;;;;;5025420;28;20052;-77
2022/11/07 12:51:50;;;;;;;2.97;1.10;;;15.00;99.90;;;;;;5023170;28;20505;-76
2022/11/07 12:54:28;;;;;;;4.85;1.60;;;15.00;99.90;;;;;;5030832;28;20516;-76
2022/11/07 12:56:56;;;;;;;5.53;1.98;;;15.10;99.90;;;;;;5022075;28;20747;-76
2022/11/07 12:59:27;;;;;;;4.97;1.80;;;15.20;99.90;;;;;;5011409;28;20141;-76
2022/11/07 13:01:56;;;;;;;4.63;2.13;;;15.20;99.90;;;;;;5000812;28;20057;-76
2022/11/07 13:04:46;;;;;;;3.70;1.80;;;15.30;99.90;;;;;;5020083;28;20127;-76
2022/11/07 13:07:33;;;;;;;3.85;1.60;;;15.40;99.90;;;;;;5026828;28;20160;-76
2022/11/07 13:10:09;;;;;;;4.25;1.60;;;15.70;99.90;;;;;;5019209;28;20072;-75
2022/11/07 13:12:45;;;;;;;4.10;2.00;;;15.80;99.90;;;;;;5002977;28;20037;-75